Cannon Falls, Minnesota
Current Conditions -  °F | °C
As of 6:54 AM on Wednesday 26 Nov 2014 (Local Time) from KSYN Reporting Station
Light Snow Light Snow  
Wind Chill: 15°   Ceiling: 2700
Heat Index: 24°   Visibility: 3mi
Dew Point: 20°   Wind: 8mph
Humidity: 85%   Direction: 70°ENE
Pressure: 30.04"   Gusts: NA
Location:  44.51°N, 92.91°W
Report Text: KSYN 261254Z AUTO 07007KT 3SM -SN SCT013 OVC027 M05/M07 A3004 RMK AO2 T10461067
Loading
Personal Weather Stations






























Interactive Weather Map New forecast layout! Learn more

10-Day Weather Forecast

Advertisements
Track Severe Weather on mobile